sensor_id;sensor_type;location;lat;lon;timestamp;pressure;altitude;pressure_sealevel;temperature;humidity
20145;BME280;10233;50.814;6.590;2023-03-22T00:01:11;99793.84;;;11.60;100.00
20145;BME280;10233;50.814;6.590;2023-03-22T00:02:11;99784.41;;;11.64;100.00
20145;BME280;10233;50.814;6.590;2023-03-22T00:03:12;99793.84;;;11.60;100.00
20145;BME280;10233;50.814;6.590;2023-03-22T00:04:12;99790.19;;;11.55;100.00
20145;BME280;10233;50.814;6.590;2023-03-22T00:05:13;99778.91;;;11.59;100.00
20145;BME280;10233;50.814;6.590;2023-03-22T00:06:14;99785.06;;;11.60;100.00
20145;BME280;10233;50.814;6.590;2023-03-22T00:07:15;99784.25;;;11.59;100.00
20145;BME280;10233;50.814;6.590;2023-03-22T00:08:16;99780.53;;;11.60;100.00
20145;BME280;10233;50.814;6.590;2023-03-22T00:09:19;99780.75;;;11.59;100.00
20145;BME280;10233;50.814;6.590;2023-03-22T00:10:20;99778.50;;;11.56;100.00
20145;BME280;10233;50.814;6.590;2023-03-22T00:11:22;99776.28;;;11.53;100.00
20145;BME280;10233;50.814;6.590;2023-03-22T00:12:24;99772.75;;;11.59;100.00
20145;BME280;10233;50.814;6.590;2023-03-22T00:13:25;99774.03;;;11.56;100.00
20145;BME280;10233;50.814;6.590;2023-03-22T00:14:26;99774.59;;;11.58;100.00
20145;BME280;10233;50.814;6.590;2023-03-22T00:15:27;99769.28;;;11.58;100.00
20145;BME280;10233;50.814;6.590;2023-03-22T00:16:28;99769.09;;;11.60;100.00
20145;BME280;10233;50.814;6.590;2023-03-22T00:17:29;99773.59;;;11.59;100.00
20145;BME280;10233;50.814;6.590;2023-03-22T00:18:30;99770.53;;;11.56;100.00
20145;BME280;10233;50.814;6.590;2023-03-22T00:19:32;99771.34;;;11.56;100.00
20145;BME280;10233;50.814;6.590;2023-03-22T00:20:33;99773.53;;;11.66;100.00
20145;BME280;10233;50.814;6.590;2023-03-22T00:21:36;99772.13;;;11.63;100.00
20145;BME280;10233;50.814;6.590;2023-03-22T00:22:39;99772.38;;;11.55;100.00
20145;BME280;10233;50.814;6.590;2023-03-22T00:23:40;99772.56;;;11.60;100.00
20145;BME280;10233;50.814;6.590;2023-03-22T00:24:44;99776.06;;;11.54;100.00
20145;BME280;10233;50.814;6.590;2023-03-22T00:25:45;99762.34;;;11.57;100.00
20145;BME280;10233;50.814;6.590;2023-03-22T00:26:46;99766.81;;;11.57;100.00
20145;BME280;10233;50.814;6.590;2023-03-22T00:27:48;99759.50;;;11.52;100.00
20145;BME280;10233;50.814;6.590;2023-03-22T00:28:48;99758.03;;;11.56;100.00
20145;BME280;10233;50.814;6.590;2023-03-22T00:29:52;99759.88;;;11.56;100.00
20145;BME280;10233;50.814;6.590;2023-03-22T00:30:57;99760.72;;;11.56;100.00
20145;BME280;10233;50.814;6.590;2023-03-22T00:32:00;99754.31;;;11.64;100.00
20145;BME280;10233;50.814;6.590;2023-03-22T00:33:01;99742.66;;;11.58;100.00
20145;BME280;10233;50.814;6.590;2023-03-22T00:34:01;99740.75;;;11.65;100.00
20145;BME280;10233;50.814;6.590;2023-03-22T00:35:05;99746.34;;;11.57;100.00
20145;BME280;10233;50.814;6.590;2023-03-22T00:36:09;99744.47;;;11.64;100.00
20145;BME280;10233;50.814;6.590;2023-03-22T00:37:10;99742.88;;;11.57;100.00
20145;BME280;10233;50.814;6.590;2023-03-22T00:38:11;99745.06;;;11.66;100.00
20145;BME280;10233;50.814;6.590;2023-03-22T00:39:14;99744.59;;;11.69;100.00
20145;BME280;10233;50.814;6.590;2023-03-22T00:40:15;99745.50;;;11.63;100.00
20145;BME280;10233;50.814;6.590;2023-03-22T00:41:18;99745.06;;;11.66;100.00
20145;BME280;10233;50.814;6.590;2023-03-22T00:42:19;99741.16;;;11.69;100.00
20145;BME280;10233;50.814;6.590;2023-03-22T00:43:22;99743.88;;;11.62;100.00
20145;BME280;10233;50.814;6.590;2023-03-22T00:44:25;99737.28;;;11.65;100.00
20145;BME280;10233;50.814;6.590;2023-03-22T00:45:25;99740.19;;;11.63;100.00
20145;BME280;10233;50.814;6.590;2023-03-22T00:46:26;99729.31;;;11.65;100.00
20145;BME280;10233;50.814;6.590;2023-03-22T00:47:26;99733.94;;;11.69;100.00
20145;BME280;10233;50.814;6.590;2023-03-22T00:48:27;99719.38;;;11.72;100.00
20145;BME280;10233;50.814;6.590;2023-03-22T00:49:27;99723.44;;;11.74;100.00
20145;BME280;10233;50.814;6.590;2023-03-22T00:50:29;99721.84;;;11.73;100.00
20145;BME280;10233;50.814;6.590;2023-03-22T00:51:30;99720.50;;;11.64;100.00
20145;BME280;10233;50.814;6.590;2023-03-22T00:52:31;99723.97;;;11.65;100.00
20145;BME280;10233;50.814;6.590;2023-03-22T00:53:35;99725.81;;;11.64;100.00
20145;BME280;10233;50.814;6.590;2023-03-22T00:54:36;99721.91;;;11.67;100.00
20145;BME280;10233;50.814;6.590;2023-03-22T00:55:37;99720.06;;;11.67;100.00
20145;BME280;10233;50.814;6.590;2023-03-22T00:56:37;99713.13;;;11.66;100.00
20145;BME280;10233;50.814;6.590;2023-03-22T00:57:46;99721.69;;;11.68;100.00
20145;BME280;10233;50.814;6.590;2023-03-22T00:58:47;99723.63;;;11.61;100.00
20145;BME280;10233;50.814;6.590;2023-03-22T00:59:48;99718.03;;;11.63;100.00
20145;BME280;10233;50.814;6.590;2023-03-22T01:00:49;99713.53;;;11.63;100.00
20145;BME280;10233;50.814;6.590;2023-03-22T01:01:50;99714.63;;;11.56;100.00
20145;BME280;10233;50.814;6.590;2023-03-22T01:02:51;99724.44;;;11.55;100.00
20145;BME280;10233;50.814;6.590;2023-03-22T01:03:59;99714.91;;;11.48;100.00
20145;BME280;10233;50.814;6.590;2023-03-22T01:04:59;99711.81;;;11.51;100.00
20145;BME280;10233;50.814;6.590;2023-03-22T01:06:00;99717.97;;;11.51;100.00
20145;BME280;10233;50.814;6.590;2023-03-22T01:07:01;99708.94;;;11.52;100.00
20145;BME280;10233;50.814;6.590;2023-03-22T01:08:09;99715.31;;;11.51;100.00
20145;BME280;10233;50.814;6.590;2023-03-22T01:09:09;99713.06;;;11.48;100.00
20145;BME280;10233;50.814;6.590;2023-03-22T01:10:14;99714.53;;;11.44;100.00
20145;BME280;10233;50.814;6.590;2023-03-22T01:11:15;99711.28;;;11.42;100.00
20145;BME280;10233;50.814;6.590;2023-03-22T01:12:19;99708.84;;;11.41;100.00
20145;BME280;10233;50.814;6.590;2023-03-22T01:13:20;99712.59;;;11.33;100.00
20145;BME280;10233;50.814;6.590;2023-03-22T01:14:21;99715.06;;;11.35;100.00
20145;BME280;10233;50.814;6.590;2023-03-22T01:15:22;99715.69;;;11.30;100.00
20145;BME280;10233;50.814;6.590;2023-03-22T01:16:24;99712.47;;;11.28;100.00
20145;BME280;10233;50.814;6.590;2023-03-22T01:17:25;99713.19;;;11.35;100.00
20145;BME280;10233;50.814;6.590;2023-03-22T01:18:25;99706.47;;;11.33;100.00
20145;BME280;10233;50.814;6.590;2023-03-22T01:19:26;99709.28;;;11.38;100.00
20145;BME280;10233;50.814;6.590;2023-03-22T01:20:27;99710.75;;;11.34;100.00
20145;BME280;10233;50.814;6.590;2023-03-22T01:21:28;99706.63;;;11.38;100.00
20145;BME280;10233;50.814;6.590;2023-03-22T01:22:28;99705.81;;;11.37;100.00
20145;BME280;10233;50.814;6.590;2023-03-22T01:23:29;99700.94;;;11.34;100.00
20145;BME280;10233;50.814;6.590;2023-03-22T01:24:30;99703.00;;;11.32;100.00
20145;BME280;10233;50.814;6.590;2023-03-22T01:25:30;99699.31;;;11.33;100.00
20145;BME280;10233;50.814;6.590;2023-03-22T01:26:31;99698.25;;;11.34;100.00
20145;BME280;10233;50.814;6.590;2023-03-22T01:27:32;99700.78;;;11.29;100.00
20145;BME280;10233;50.814;6.590;2023-03-22T01:28:32;99697.06;;;11.30;100.00
20145;BME280;10233;50.814;6.590;2023-03-22T01:29:33;99696.03;;;11.31;100.00
20145;BME280;10233;50.814;6.590;2023-03-22T01:30:34;99703.06;;;11.26;100.00
20145;BME280;10233;50.814;6.590;2023-03-22T01:31:35;99704.69;;;11.27;100.00
20145;BME280;10233;50.814;6.590;2023-03-22T01:32:36;99708.75;;;11.29;100.00
20145;BME280;10233;50.814;6.590;2023-03-22T01:33:38;99704.25;;;11.30;100.00
20145;BME280;10233;50.814;6.590;2023-03-22T01:34:39;99698.53;;;11.26;100.00
20145;BME280;10233;50.814;6.590;2023-03-22T01:35:39;99699.56;;;11.25;100.00
20145;BME280;10233;50.814;6.590;2023-03-22T01:36:41;99692.78;;;11.29;100.00
20145;BME280;10233;50.814;6.590;2023-03-22T01:37:42;99700.19;;;11.27;100.00
20145;BME280;10233;50.814;6.590;2023-03-22T01:38:43;99698.47;;;11.33;100.00
20145;BME280;10233;50.814;6.590;2023-03-22T01:39:44;99691.38;;;11.27;100.00
20145;BME280;10233;50.814;6.590;2023-03-22T01:40:46;99690.13;;;11.29;100.00
20145;BME280;10233;50.814;6.590;2023-03-22T01:41:47;99692.63;;;11.24;100.00
20145;BME280;10233;50.814;6.590;2023-03-22T01:42:52;99690.56;;;11.26;100.00
20145;BME280;10233;50.814;6.590;2023-03-22T01:44:16;99688.88;;;11.32;100.00
20145;BME280;10233;50.814;6.590;2023-03-22T01:45:41;99687.63;;;11.34;100.00
20145;BME280;10233;50.814;6.590;2023-03-22T01:46:45;99695.81;;;11.33;100.00
20145;BME280;10233;50.814;6.590;2023-03-22T01:47:59;99681.72;;;11.32;100.00
20145;BME280;10233;50.814;6.590;2023-03-22T01:49:02;99684.22;;;11.27;100.00
20145;BME280;10233;50.814;6.590;2023-03-22T01:50:04;99692.84;;;11.23;100.00
20145;BME280;10233;50.814;6.590;2023-03-22T01:52:21;99679.03;;;11.14;100.00
20145;BME280;10233;50.814;6.590;2023-03-22T01:53:53;99690.53;;;11.08;100.00
20145;BME280;10233;50.814;6.590;2023-03-22T01:54:55;99689.34;;;11.04;100.00
20145;BME280;10233;50.814;6.590;2023-03-22T01:56:09;99682.25;;;10.98;100.00
20145;BME280;10233;50.814;6.590;2023-03-22T01:57:10;99686.97;;;10.96;100.00
20145;BME280;10233;50.814;6.590;2023-03-22T01:58:15;99685.91;;;10.97;100.00
20145;BME280;10233;50.814;6.590;2023-03-22T01:59:23;99687.41;;;10.93;100.00
20145;BME280;10233;50.814;6.590;2023-03-22T02:00:48;99686.63;;;10.86;100.00
20145;BME280;10233;50.814;6.590;2023-03-22T02:02:01;99687.00;;;10.90;100.00
20145;BME280;10233;50.814;6.590;2023-03-22T02:03:03;99691.38;;;10.84;100.00
20145;BME280;10233;50.814;6.590;2023-03-22T02:04:18;99680.13;;;10.82;100.00
20145;BME280;10233;50.814;6.590;2023-03-22T02:05:35;99681.63;;;10.78;100.00
20145;BME280;10233;50.814;6.590;2023-03-22T02:06:37;99681.66;;;10.72;100.00
20145;BME280;10233;50.814;6.590;2023-03-22T02:07:44;99680.41;;;10.74;100.00
20145;BME280;10233;50.814;6.590;2023-03-22T02:08:45;99672.22;;;10.76;100.00
20145;BME280;10233;50.814;6.590;2023-03-22T02:09:49;99671.59;;;10.74;100.00
20145;BME280;10233;50.814;6.590;2023-03-22T02:10:50;99673.31;;;10.68;100.00
20145;BME280;10233;50.814;6.590;2023-03-22T02:24:17;99652.34;;;10.54;100.00
20145;BME280;10233;50.814;6.590;2023-03-22T02:29:40;99649.31;;;10.50;100.00
20145;BME280;10233;50.814;6.590;2023-03-22T02:33:32;99647.28;;;10.46;100.00
20145;BME280;10233;50.814;6.590;2023-03-22T02:41:10;99633.47;;;10.37;100.00
20145;BME280;10233;50.814;6.590;2023-03-22T02:42:22;99637.16;;;10.36;100.00
20145;BME280;10233;50.814;6.590;2023-03-22T02:47:01;99633.28;;;10.32;100.00
20145;BME280;10233;50.814;6.590;2023-03-22T02:48:15;99633.50;;;10.31;100.00
20145;BME280;10233;50.814;6.590;2023-03-22T02:49:32;99630.84;;;10.31;100.00
20145;BME280;10233;50.814;6.590;2023-03-22T02:50:53;99633.47;;;10.37;100.00
20145;BME280;10233;50.814;6.590;2023-03-22T02:52:01;99626.75;;;10.35;100.00
20145;BME280;10233;50.814;6.590;2023-03-22T02:54:25;99623.50;;;10.33;100.00
20145;BME280;10233;50.814;6.590;2023-03-22T02:55:50;99624.75;;;10.30;100.00
20145;BME280;10233;50.814;6.590;2023-03-22T02:57:04;99614.75;;;10.26;100.00
20145;BME280;10233;50.814;6.590;2023-03-22T02:58:18;99623.91;;;10.30;100.00
20145;BME280;10233;50.814;6.590;2023-03-22T02:59:22;99615.41;;;10.21;100.00
20145;BME280;10233;50.814;6.590;2023-03-22T03:00:27;99618.06;;;10.21;100.00
20145;BME280;10233;50.814;6.590;2023-03-22T03:01:53;99617.84;;;10.23;100.00
20145;BME280;10233;50.814;6.590;2023-03-22T03:02:58;99616.19;;;10.22;100.00
20145;BME280;10233;50.814;6.590;2023-03-22T03:04:06;99614.19;;;10.17;100.00
20145;BME280;10233;50.814;6.590;2023-03-22T03:05:09;99612.19;;;10.13;100.00
20145;BME280;10233;50.814;6.590;2023-03-22T03:06:15;99613.81;;;10.14;100.00
20145;BME280;10233;50.814;6.590;2023-03-22T03:07:20;99612.41;;;10.11;100.00
20145;BME280;10233;50.814;6.590;2023-03-22T03:08:25;99612.44;;;10.05;100.00
20145;BME280;10233;50.814;6.590;2023-03-22T03:09:27;99619.56;;;10.11;100.00
20145;BME280;10233;50.814;6.590;2023-03-22T03:10:28;99618.59;;;10.05;100.00
20145;BME280;10233;50.814;6.590;2023-03-22T03:11:30;99618.97;;;10.02;100.00
20145;BME280;10233;50.814;6.590;2023-03-22T03:12:30;99619.34;;;10.12;100.00
20145;BME280;10233;50.814;6.590;2023-03-22T03:13:31;99620.16;;;10.13;100.00
20145;BME280;10233;50.814;6.590;2023-03-22T03:14:31;99611.00;;;10.09;100.00
20145;BME280;10233;50.814;6.590;2023-03-22T03:15:33;99616.09;;;10.04;100.00
20145;BME280;10233;50.814;6.590;2023-03-22T03:16:33;99618.97;;;10.02;100.00
20145;BME280;10233;50.814;6.590;2023-03-22T03:19:00;99620.69;;;9.90;100.00
20145;BME280;10233;50.814;6.590;2023-03-22T03:21:52;99619.44;;;9.93;100.00
20145;BME280;10233;50.814;6.590;2023-03-22T03:23:01;99614.56;;;9.90;100.00
20145;BME280;10233;50.814;6.590;2023-03-22T03:28:24;99612.22;;;10.06;100.00
20145;BME280;10233;50.814;6.590;2023-03-22T03:29:48;99611.19;;;10.07;100.00
20145;BME280;10233;50.814;6.590;2023-03-22T03:31:01;99619.78;;;10.03;100.00
20145;BME280;10233;50.814;6.590;2023-03-22T03:33:28;99609.97;;;10.03;100.00
20145;BME280;10233;50.814;6.590;2023-03-22T03:34:50;99612.03;;;10.01;100.00
20145;BME280;10233;50.814;6.590;2023-03-22T03:35:59;99617.34;;;10.01;100.00
20145;BME280;10233;50.814;6.590;2023-03-22T03:37:05;99613.66;;;10.02;100.00
20145;BME280;10233;50.814;6.590;2023-03-22T03:38:14;99608.13;;;10.04;100.00
20145;BME280;10233;50.814;6.590;2023-03-22T03:39:18;99618.38;;;10.00;100.00
20145;BME280;10233;50.814;6.590;2023-03-22T03:40:27;99620.19;;;10.06;100.00
20145;BME280;10233;50.814;6.590;2023-03-22T03:41:31;99616.50;;;10.07;100.00
20145;BME280;10233;50.814;6.590;2023-03-22T03:42:32;99612.25;;;10.00;100.00
20145;BME280;10233;50.814;6.590;2023-03-22T03:43:35;99603.69;;;9.98;100.00
20145;BME280;10233;50.814;6.590;2023-03-22T03:44:37;99605.53;;;9.97;100.00
20145;BME280;10233;50.814;6.590;2023-03-22T03:45:39;99610.25;;;9.95;100.00
20145;BME280;10233;50.814;6.590;2023-03-22T03:46:40;99609.22;;;9.96;100.00
20145;BME280;10233;50.814;6.590;2023-03-22T03:47:43;99611.91;;;9.90;100.00
20145;BME280;10233;50.814;6.590;2023-03-22T03:48:47;99602.72;;;9.86;100.00
20145;BME280;10233;50.814;6.590;2023-03-22T03:49:49;99598.22;;;9.93;100.00
20145;BME280;10233;50.814;6.590;2023-03-22T03:50:51;99599.88;;;9.87;100.00
20145;BME280;10233;50.814;6.590;2023-03-22T03:51:54;99601.09;;;9.85;100.00
20145;BME280;10233;50.814;6.590;2023-03-22T03:52:55;99606.00;;;9.88;100.00
20145;BME280;10233;50.814;6.590;2023-03-22T03:53:56;99600.63;;;9.94;100.00
20145;BME280;10233;50.814;6.590;2023-03-22T03:54:57;99603.72;;;9.91;100.00
20145;BME280;10233;50.814;6.590;2023-03-22T03:56:04;99605.34;;;9.92;100.00
20145;BME280;10233;50.814;6.590;2023-03-22T03:57:11;99603.09;;;9.89;100.00
20145;BME280;10233;50.814;6.590;2023-03-22T03:58:11;99601.06;;;9.91;100.00
20145;BME280;10233;50.814;6.590;2023-03-22T03:59:17;99599.00;;;9.93;100.00
20145;BME280;10233;50.814;6.590;2023-03-22T04:00:21;99600.78;;;9.99;100.00
20145;BME280;10233;50.814;6.590;2023-03-22T04:01:57;99596.72;;;9.97;100.00
20145;BME280;10233;50.814;6.590;2023-03-22T04:03:01;99602.03;;;9.97;100.00
20145;BME280;10233;50.814;6.590;2023-03-22T04:04:29;99598.25;;;9.86;100.00
20145;BME280;10233;50.814;6.590;2023-03-22T04:05:37;99609.28;;;9.83;100.00
20145;BME280;10233;50.814;6.590;2023-03-22T04:06:38;99600.72;;;9.81;100.00
20145;BME280;10233;50.814;6.590;2023-03-22T04:07:43;99604.44;;;9.74;100.00
20145;BME280;10233;50.814;6.590;2023-03-22T04:08:44;99601.34;;;9.77;100.00
20145;BME280;10233;50.814;6.590;2023-03-22T04:09:47;99596.69;;;9.72;100.00
20145;BME280;10233;50.814;6.590;2023-03-22T04:10:55;99602.16;;;9.77;100.00
20145;BME280;10233;50.814;6.590;2023-03-22T04:11:56;99606.44;;;9.78;100.00
20145;BME280;10233;50.814;6.590;2023-03-22T04:12:58;99606.03;;;9.81;100.00
20145;BME280;10233;50.814;6.590;2023-03-22T04:13:58;99598.31;;;9.73;100.00
20145;BME280;10233;50.814;6.590;2023-03-22T04:14:59;99598.72;;;9.70;100.00
20145;BME280;10233;50.814;6.590;2023-03-22T04:16:03;99605.91;;;9.63;100.00
20145;BME280;10233;50.814;6.590;2023-03-22T04:17:08;99600.00;;;9.61;100.00
20145;BME280;10233;50.814;6.590;2023-03-22T04:18:09;99601.69;;;9.49;100.00
20145;BME280;10233;50.814;6.590;2023-03-22T04:19:12;99601.91;;;9.41;100.00
20145;BME280;10233;50.814;6.590;2023-03-22T04:20:14;99598.28;;;9.36;100.00
20145;BME280;10233;50.814;6.590;2023-03-22T04:21:16;99607.03;;;9.36;100.00
20145;BME280;10233;50.814;6.590;2023-03-22T04:22:30;99604.19;;;9.31;100.00
20145;BME280;10233;50.814;6.590;2023-03-22T04:23:33;99596.88;;;9.27;100.00
20145;BME280;10233;50.814;6.590;2023-03-22T04:24:35;99600.19;;;9.22;100.00
20145;BME280;10233;50.814;6.590;2023-03-22T04:25:37;99592.41;;;9.27;100.00
20145;BME280;10233;50.814;6.590;2023-03-22T04:26:42;99588.16;;;9.20;100.00
20145;BME280;10233;50.814;6.590;2023-03-22T04:28:12;99586.97;;;9.03;100.00
20145;BME280;10233;50.814;6.590;2023-03-22T04:29:13;99591.66;;;9.07;100.00
20145;BME280;10233;50.814;6.590;2023-03-22T04:30:18;99600.00;;;9.11;100.00
20145;BME280;10233;50.814;6.590;2023-03-22T04:31:32;99592.44;;;9.14;100.00
20145;BME280;10233;50.814;6.590;2023-03-22T04:32:39;99585.53;;;9.07;100.00
20145;BME280;10233;50.814;6.590;2023-03-22T04:33:40;99582.88;;;9.07;100.00
20145;BME280;10233;50.814;6.590;2023-03-22T04:34:53;99588.41;;;8.92;100.00
20145;BME280;10233;50.814;6.590;2023-03-22T04:35:54;99580.06;;;8.95;100.00
20145;BME280;10233;50.814;6.590;2023-03-22T04:37:01;99586.19;;;8.89;100.00
20145;BME280;10233;50.814;6.590;2023-03-22T04:38:11;99581.53;;;8.78;100.00
20145;BME280;10233;50.814;6.590;2023-03-22T04:39:13;99579.88;;;8.77;100.00
20145;BME280;10233;50.814;6.590;2023-03-22T04:40:21;99574.38;;;8.72;100.00
20145;BME280;10233;50.814;6.590;2023-03-22T04:41:42;99574.00;;;8.69;100.00
20145;BME280;10233;50.814;6.590;2023-03-22T04:42:43;99566.25;;;8.67;100.00
20145;BME280;10233;50.814;6.590;2023-03-22T04:43:53;99572.78;;;8.65;100.00
20145;BME280;10233;50.814;6.590;2023-03-22T04:44:54;99575.22;;;8.66;100.00
20145;BME280;10233;50.814;6.590;2023-03-22T04:45:54;99568.50;;;8.64;100.00
20145;BME280;10233;50.814;6.590;2023-03-22T04:47:00;99570.94;;;8.72;100.00
20145;BME280;10233;50.814;6.590;2023-03-22T04:48:01;99564.81;;;8.71;100.00
20145;BME280;10233;50.814;6.590;2023-03-22T04:49:04;99571.16;;;8.70;100.00
20145;BME280;10233;50.814;6.590;2023-03-22T04:50:09;99569.72;;;8.74;100.00
20145;BME280;10233;50.814;6.590;2023-03-22T04:51:19;99577.63;;;8.87;100.00
20145;BME280;10233;50.814;6.590;2023-03-22T04:52:42;99573.53;;;8.98;100.00
20145;BME280;10233;50.814;6.590;2023-03-22T04:53:43;99578.84;;;8.91;100.00
20145;BME280;10233;50.814;6.590;2023-03-22T04:54:44;99582.72;;;8.95;100.00
20145;BME280;10233;50.814;6.590;2023-03-22T04:55:46;99576.16;;;9.04;100.00
20145;BME280;10233;50.814;6.590;2023-03-22T04:56:46;99585.13;;;9.03;100.00
20145;BME280;10233;50.814;6.590;2023-03-22T04:57:49;99577.59;;;9.00;100.00
20145;BME280;10233;50.814;6.590;2023-03-22T04:58:50;99580.66;;;8.97;100.00
20145;BME280;10233;50.814;6.590;2023-03-22T04:59:51;99581.69;;;8.96;100.00
20145;BME280;10233;50.814;6.590;2023-03-22T05:00:52;99578.03;;;8.91;100.00
20145;BME280;10233;50.814;6.590;2023-03-22T05:01:55;99580.66;;;8.97;100.00
20145;BME280;10233;50.814;6.590;2023-03-22T05:02:59;99581.28;;;8.93;100.00
20145;BME280;10233;50.814;6.590;2023-03-22T05:04:12;99579.66;;;8.92;100.00
20145;BME280;10233;50.814;6.590;2023-03-22T05:05:13;99572.13;;;8.89;100.00
20145;BME280;10233;50.814;6.590;2023-03-22T05:06:14;99579.28;;;8.88;100.00
20145;BME280;10233;50.814;6.590;2023-03-22T05:07:50;99573.97;;;8.88;100.00
20145;BME280;10233;50.814;6.590;2023-03-22T05:08:52;99574.56;;;8.97;100.00
20145;BME280;10233;50.814;6.590;2023-03-22T05:09:55;99574.34;;;8.92;100.00
20145;BME280;10233;50.814;6.590;2023-03-22T05:10:57;99574.56;;;8.90;100.00
20145;BME280;10233;50.814;6.590;2023-03-22T05:11:58;99581.28;;;8.93;100.00
20145;BME280;10233;50.814;6.590;2023-03-22T05:13:31;99578.63;;;8.86;100.00
20145;BME280;10233;50.814;6.590;2023-03-22T05:14:32;99580.69;;;8.91;100.00
20145;BME280;10233;50.814;6.590;2023-03-22T05:15:32;99583.53;;;8.96;100.00
20145;BME280;10233;50.814;6.590;2023-03-22T05:16:34;99586.56;;;9.06;100.00
20145;BME280;10233;50.814;6.590;2023-03-22T05:17:35;99585.91;;;9.10;100.00
20145;BME280;10233;50.814;6.590;2023-03-22T05:18:36;99576.34;;;9.09;100.00
20145;BME280;10233;50.814;6.590;2023-03-22T05:19:41;99585.72;;;9.05;100.00
20145;BME280;10233;50.814;6.590;2023-03-22T05:20:43;99580.03;;;9.02;100.00
20145;BME280;10233;50.814;6.590;2023-03-22T05:21:53;99579.84;;;8.97;100.00
20145;BME280;10233;50.814;6.590;2023-03-22T05:23:00;99577.81;;;8.92;100.00
20145;BME280;10233;50.814;6.590;2023-03-22T05:24:02;99576.81;;;8.87;100.00
20145;BME280;10233;50.814;6.590;2023-03-22T05:25:04;99576.63;;;8.88;100.00
20145;BME280;10233;50.814;6.590;2023-03-22T05:26:05;99579.03;;;8.90;100.00
20145;BME280;10233;50.814;6.590;2023-03-22T05:27:07;99577.00;;;8.92;100.00
20145;BME280;10233;50.814;6.590;2023-03-22T05:28:10;99582.31;;;8.92;100.00
20145;BME280;10233;50.814;6.590;2023-03-22T05:29:30;99583.72;;;9.07;100.00
20145;BME280;10233;50.814;6.590;2023-03-22T05:30:43;99580.63;;;9.10;100.00
20145;BME280;10233;50.814;6.590;2023-03-22T05:32:03;99588.09;;;9.26;100.00
20145;BME280;10233;50.814;6.590;2023-03-22T05:33:04;99590.56;;;9.28;100.00
20145;BME280;10233;50.814;6.590;2023-03-22T05:34:09;99582.56;;;9.41;100.00
20145;BME280;10233;50.814;6.590;2023-03-22T05:35:12;99590.69;;;9.46;100.00
20145;BME280;10233;50.814;6.590;2023-03-22T05:36:18;99580.66;;;9.48;100.00
20145;BME280;10233;50.814;6.590;2023-03-22T05:37:39;99582.94;;;9.44;100.00
20145;BME280;10233;50.814;6.590;2023-03-22T05:38:41;99588.41;;;9.49;100.00
20145;BME280;10233;50.814;6.590;2023-03-22T05:39:41;99587.00;;;9.47;100.00
20145;BME280;10233;50.814;6.590;2023-03-22T05:40:43;99581.69;;;9.47;100.00
20145;BME280;10233;50.814;6.590;2023-03-22T05:41:44;99587.56;;;9.55;100.00
20145;BME280;10233;50.814;6.590;2023-03-22T05:42:45;99595.88;;;9.65;100.00
20145;BME280;10233;50.814;6.590;2023-03-22T05:43:55;99588.28;;;9.75;100.00
20145;BME280;10233;50.814;6.590;2023-03-22T05:44:56;99596.66;;;9.79;100.00
20145;BME280;10233;50.814;6.590;2023-03-22T05:45:57;99588.06;;;9.77;100.00
20145;BME280;10233;50.814;6.590;2023-03-22T05:47:23;99600.47;;;9.83;100.00
20145;BME280;10233;50.814;6.590;2023-03-22T05:48:33;99593.69;;;9.93;100.00
20145;BME280;10233;50.814;6.590;2023-03-22T05:49:35;99592.63;;;10.01;100.00
20145;BME280;10233;50.814;6.590;2023-03-22T05:50:37;99590.19;;;9.99;100.00
20145;BME280;10233;50.814;6.590;2023-03-22T05:51:38;99590.38;;;10.04;100.00
20145;BME280;10233;50.814;6.590;2023-03-22T05:52:43;99589.97;;;10.01;100.00
20145;BME280;10233;50.814;6.590;2023-03-22T05:54:05;99590.53;;;10.09;100.00
20145;BME280;10233;50.814;6.590;2023-03-22T05:55:14;99591.75;;;10.13;100.00
20145;BME280;10233;50.814;6.590;2023-03-22T05:56:17;99591.81;;;10.31;100.00
20145;BME280;10233;50.814;6.590;2023-03-22T05:57:24;99580.63;;;10.29;100.00
20145;BME280;10233;50.814;6.590;2023-03-22T05:58:27;99577.78;;;10.24;100.00
20145;BME280;10233;50.814;6.590;2023-03-22T05:59:30;99582.28;;;10.24;100.00
20145;BME280;10233;50.814;6.590;2023-03-22T06:00:31;99584.53;;;10.27;100.00
20145;BME280;10233;50.814;6.590;2023-03-22T06:02:03;99579.75;;;10.35;100.00
20145;BME280;10233;50.814;6.590;2023-03-22T06:03:05;99577.25;;;10.40;100.00
20145;BME280;10233;50.814;6.590;2023-03-22T06:04:10;99581.94;;;10.38;100.00
20145;BME280;10233;50.814;6.590;2023-03-22T06:05:31;99575.34;;;10.47;100.00
20145;BME280;10233;50.814;6.590;2023-03-22T06:06:32;99581.25;;;10.49;100.00
20145;BME280;10233;50.814;6.590;2023-03-22T06:07:48;99583.34;;;10.65;100.00
20145;BME280;10233;50.814;6.590;2023-03-22T06:08:50;99581.06;;;10.69;100.00
20145;BME280;10233;50.814;6.590;2023-03-22T06:09:51;99583.50;;;10.70;100.00
20145;BME280;10233;50.814;6.590;2023-03-22T06:10:55;99576.13;;;10.72;100.00
20145;BME280;10233;50.814;6.590;2023-03-22T06:11:57;99572.16;;;10.81;100.00
20145;BME280;10233;50.814;6.590;2023-03-22T06:12:57;99579.03;;;10.89;100.00
20145;BME280;10233;50.814;6.590;2023-03-22T06:14:02;99582.97;;;11.04;100.00
20145;BME280;10233;50.814;6.590;2023-03-22T06:15:16;99576.16;;;11.08;100.00
20145;BME280;10233;50.814;6.590;2023-03-22T06:16:30;99570.47;;;11.23;100.00
20145;BME280;10233;50.814;6.590;2023-03-22T06:17:30;99572.81;;;11.31;100.00
20145;BME280;10233;50.814;6.590;2023-03-22T06:18:32;99567.44;;;11.37;100.00
20145;BME280;10233;50.814;6.590;2023-03-22T06:19:40;99571.03;;;11.43;100.00
20145;BME280;10233;50.814;6.590;2023-03-22T06:20:42;99573.47;;;11.44;100.00
20145;BME280;10233;50.814;6.590;2023-03-22T06:21:49;99570.81;;;11.44;100.00
20145;BME280;10233;50.814;6.590;2023-03-22T06:22:52;99570.50;;;11.52;100.00